sensor_id;sensor_type;location;lat;lon;timestamp;P1;durP1;ratioP1;P2;durP2;ratioP2
5465;SDS011;2755;50.728;7.108;2023-09-19T00:02:17;181.77;;;140.03;;
5465;SDS011;2755;50.728;7.108;2023-09-19T00:04:43;178.97;;;133.17;;
5465;SDS011;2755;50.728;7.108;2023-09-19T00:07:08;178.50;;;133.27;;
5465;SDS011;2755;50.728;7.108;2023-09-19T00:09:34;183.87;;;142.13;;
5465;SDS011;2755;50.728;7.108;2023-09-19T00:12:04;179.37;;;137.63;;
5465;SDS011;2755;50.728;7.108;2023-09-19T00:14:31;182.00;;;138.90;;
5465;SDS011;2755;50.728;7.108;2023-09-19T00:16:59;182.33;;;136.63;;
5465;SDS011;2755;50.728;7.108;2023-09-19T00:19:25;179.47;;;134.20;;
5465;SDS011;2755;50.728;7.108;2023-09-19T00:21:51;184.70;;;142.20;;
5465;SDS011;2755;50.728;7.108;2023-09-19T00:24:18;180.07;;;135.77;;
5465;SDS011;2755;50.728;7.108;2023-09-19T00:26:43;175.63;;;130.93;;
5465;SDS011;2755;50.728;7.108;2023-09-19T00:29:11;182.37;;;139.37;;
5465;SDS011;2755;50.728;7.108;2023-09-19T00:31:42;179.03;;;132.13;;
5465;SDS011;2755;50.728;7.108;2023-09-19T00:34:08;176.70;;;131.03;;
5465;SDS011;2755;50.728;7.108;2023-09-19T00:36:37;180.47;;;134.93;;
5465;SDS011;2755;50.728;7.108;2023-09-19T00:39:05;177.57;;;130.40;;
5465;SDS011;2755;50.728;7.108;2023-09-19T00:41:32;175.87;;;129.27;;
5465;SDS011;2755;50.728;7.108;2023-09-19T00:44:00;179.93;;;137.67;;
5465;SDS011;2755;50.728;7.108;2023-09-19T00:46:27;182.93;;;139.73;;
5465;SDS011;2755;50.728;7.108;2023-09-19T00:48:53;183.47;;;140.07;;
5465;SDS011;2755;50.728;7.108;2023-09-19T00:51:19;182.33;;;137.33;;
5465;SDS011;2755;50.728;7.108;2023-09-19T00:53:47;187.07;;;141.67;;
5465;SDS011;2755;50.728;7.108;2023-09-19T00:56:14;185.70;;;140.83;;
5465;SDS011;2755;50.728;7.108;2023-09-19T00:58:43;184.77;;;140.27;;
5465;SDS011;2755;50.728;7.108;2023-09-19T01:01:09;187.33;;;145.23;;
5465;SDS011;2755;50.728;7.108;2023-09-19T01:03:37;186.23;;;140.93;;
5465;SDS011;2755;50.728;7.108;2023-09-19T01:06:02;184.27;;;139.47;;
5465;SDS011;2755;50.728;7.108;2023-09-19T01:08:28;186.77;;;140.77;;
5465;SDS011;2755;50.728;7.108;2023-09-19T01:11:06;188.23;;;142.83;;
5465;SDS011;2755;50.728;7.108;2023-09-19T01:13:48;185.00;;;139.10;;
5465;SDS011;2755;50.728;7.108;2023-09-19T01:19:22;186.00;;;141.27;;
5465;SDS011;2755;50.728;7.108;2023-09-19T01:22:13;182.03;;;132.93;;
5465;SDS011;2755;50.728;7.108;2023-09-19T01:25:10;185.47;;;133.87;;
5465;SDS011;2755;50.728;7.108;2023-09-19T01:30:35;185.10;;;136.60;;
5465;SDS011;2755;50.728;7.108;2023-09-19T01:33:05;185.30;;;138.13;;
5465;SDS011;2755;50.728;7.108;2023-09-19T01:35:31;184.80;;;137.63;;
5465;SDS011;2755;50.728;7.108;2023-09-19T01:37:59;185.93;;;136.53;;
5465;SDS011;2755;50.728;7.108;2023-09-19T01:40:25;186.33;;;138.00;;
5465;SDS011;2755;50.728;7.108;2023-09-19T01:45:26;182.17;;;133.93;;
5465;SDS011;2755;50.728;7.108;2023-09-19T01:48:02;188.37;;;142.23;;
5465;SDS011;2755;50.728;7.108;2023-09-19T01:50:44;186.53;;;142.40;;
5465;SDS011;2755;50.728;7.108;2023-09-19T01:53:25;188.87;;;143.23;;
5465;SDS011;2755;50.728;7.108;2023-09-19T01:55:53;192.47;;;148.77;;
5465;SDS011;2755;50.728;7.108;2023-09-19T02:01:08;192.40;;;150.17;;
5465;SDS011;2755;50.728;7.108;2023-09-19T02:03:37;195.70;;;155.87;;
5465;SDS011;2755;50.728;7.108;2023-09-19T02:06:05;188.17;;;144.63;;
5465;SDS011;2755;50.728;7.108;2023-09-19T02:08:36;199.33;;;159.80;;
5465;SDS011;2755;50.728;7.108;2023-09-19T02:11:02;201.57;;;164.40;;
5465;SDS011;2755;50.728;7.108;2023-09-19T02:13:28;206.60;;;172.73;;
5465;SDS011;2755;50.728;7.108;2023-09-19T02:15:55;213.17;;;185.50;;
5465;SDS011;2755;50.728;7.108;2023-09-19T02:18:21;205.70;;;175.07;;
5465;SDS011;2755;50.728;7.108;2023-09-19T02:20:46;194.90;;;157.70;;
5465;SDS011;2755;50.728;7.108;2023-09-19T02:23:13;191.57;;;155.10;;
5465;SDS011;2755;50.728;7.108;2023-09-19T02:25:38;193.63;;;157.97;;
5465;SDS011;2755;50.728;7.108;2023-09-19T02:28:05;196.90;;;159.27;;
5465;SDS011;2755;50.728;7.108;2023-09-19T02:30:31;200.20;;;165.63;;
5465;SDS011;2755;50.728;7.108;2023-09-19T02:32:58;199.53;;;165.30;;
5465;SDS011;2755;50.728;7.108;2023-09-19T02:35:26;189.67;;;152.67;;
5465;SDS011;2755;50.728;7.108;2023-09-19T02:37:53;202.37;;;170.13;;
5465;SDS011;2755;50.728;7.108;2023-09-19T02:40:19;195.10;;;156.27;;
5465;SDS011;2755;50.728;7.108;2023-09-19T02:42:48;199.83;;;167.10;;
5465;SDS011;2755;50.728;7.108;2023-09-19T02:45:17;194.90;;;157.47;;
5465;SDS011;2755;50.728;7.108;2023-09-19T02:47:44;195.57;;;160.40;;
5465;SDS011;2755;50.728;7.108;2023-09-19T02:50:10;196.80;;;160.23;;
5465;SDS011;2755;50.728;7.108;2023-09-19T02:52:37;191.77;;;152.57;;
5465;SDS011;2755;50.728;7.108;2023-09-19T02:55:03;189.80;;;150.87;;
5465;SDS011;2755;50.728;7.108;2023-09-19T02:57:31;194.67;;;159.77;;
5465;SDS011;2755;50.728;7.108;2023-09-19T02:59:58;190.77;;;149.93;;
5465;SDS011;2755;50.728;7.108;2023-09-19T03:02:26;192.67;;;152.27;;
5465;SDS011;2755;50.728;7.108;2023-09-19T03:04:53;193.43;;;152.47;;
5465;SDS011;2755;50.728;7.108;2023-09-19T03:07:18;189.07;;;146.57;;
5465;SDS011;2755;50.728;7.108;2023-09-19T03:09:44;189.73;;;149.47;;
5465;SDS011;2755;50.728;7.108;2023-09-19T03:12:10;185.57;;;142.87;;
5465;SDS011;2755;50.728;7.108;2023-09-19T03:14:36;186.37;;;142.37;;
5465;SDS011;2755;50.728;7.108;2023-09-19T03:17:02;183.77;;;139.37;;
5465;SDS011;2755;50.728;7.108;2023-09-19T03:19:31;182.40;;;137.27;;
5465;SDS011;2755;50.728;7.108;2023-09-19T03:21:58;186.13;;;144.97;;
5465;SDS011;2755;50.728;7.108;2023-09-19T03:24:24;183.97;;;139.77;;
5465;SDS011;2755;50.728;7.108;2023-09-19T03:26:51;182.37;;;137.37;;
5465;SDS011;2755;50.728;7.108;2023-09-19T03:29:17;180.57;;;135.73;;
5465;SDS011;2755;50.728;7.108;2023-09-19T03:31:43;186.40;;;143.10;;
5465;SDS011;2755;50.728;7.108;2023-09-19T03:34:10;185.83;;;141.20;;
5465;SDS011;2755;50.728;7.108;2023-09-19T03:36:42;191.57;;;146.73;;
5465;SDS011;2755;50.728;7.108;2023-09-19T03:39:08;194.50;;;153.00;;
5465;SDS011;2755;50.728;7.108;2023-09-19T03:41:33;195.20;;;160.20;;
5465;SDS011;2755;50.728;7.108;2023-09-19T03:44:01;195.13;;;153.80;;
5465;SDS011;2755;50.728;7.108;2023-09-19T03:46:27;201.10;;;166.63;;
5465;SDS011;2755;50.728;7.108;2023-09-19T03:48:53;209.13;;;178.07;;
5465;SDS011;2755;50.728;7.108;2023-09-19T03:51:19;204.90;;;172.47;;
5465;SDS011;2755;50.728;7.108;2023-09-19T03:53:45;210.77;;;180.53;;
5465;SDS011;2755;50.728;7.108;2023-09-19T03:56:11;208.67;;;182.80;;
5465;SDS011;2755;50.728;7.108;2023-09-19T03:58:37;209.30;;;179.97;;
5465;SDS011;2755;50.728;7.108;2023-09-19T04:01:04;207.23;;;174.80;;
5465;SDS011;2755;50.728;7.108;2023-09-19T04:03:31;206.80;;;177.77;;
5465;SDS011;2755;50.728;7.108;2023-09-19T04:06:14;202.10;;;163.23;;
5465;SDS011;2755;50.728;7.108;2023-09-19T04:08:40;205.40;;;171.10;;
5465;SDS011;2755;50.728;7.108;2023-09-19T04:11:06;203.77;;;167.43;;
5465;SDS011;2755;50.728;7.108;2023-09-19T04:13:32;204.47;;;166.77;;
5465;SDS011;2755;50.728;7.108;2023-09-19T04:15:58;201.97;;;160.60;;
5465;SDS011;2755;50.728;7.108;2023-09-19T04:18:32;206.33;;;171.57;;
5465;SDS011;2755;50.728;7.108;2023-09-19T04:21:02;201.13;;;163.53;;
5465;SDS011;2755;50.728;7.108;2023-09-19T04:23:29;208.70;;;174.80;;
5465;SDS011;2755;50.728;7.108;2023-09-19T04:28:29;203.30;;;166.80;;
5465;SDS011;2755;50.728;7.108;2023-09-19T04:30:56;208.57;;;175.07;;
5465;SDS011;2755;50.728;7.108;2023-09-19T04:33:22;207.33;;;171.67;;
5465;SDS011;2755;50.728;7.108;2023-09-19T04:35:51;207.23;;;174.37;;
5465;SDS011;2755;50.728;7.108;2023-09-19T04:38:17;203.40;;;166.37;;
5465;SDS011;2755;50.728;7.108;2023-09-19T04:40:44;206.87;;;175.33;;
5465;SDS011;2755;50.728;7.108;2023-09-19T04:43:10;207.63;;;174.80;;
5465;SDS011;2755;50.728;7.108;2023-09-19T04:45:36;205.53;;;172.03;;
5465;SDS011;2755;50.728;7.108;2023-09-19T04:48:04;204.70;;;171.97;;
5465;SDS011;2755;50.728;7.108;2023-09-19T04:50:31;204.33;;;172.87;;
5465;SDS011;2755;50.728;7.108;2023-09-19T04:52:57;202.53;;;172.00;;
5465;SDS011;2755;50.728;7.108;2023-09-19T04:55:23;202.13;;;168.97;;
5465;SDS011;2755;50.728;7.108;2023-09-19T04:57:50;196.37;;;158.87;;
5465;SDS011;2755;50.728;7.108;2023-09-19T05:00:18;195.30;;;156.50;;
5465;SDS011;2755;50.728;7.108;2023-09-19T05:02:52;194.73;;;154.60;;
5465;SDS011;2755;50.728;7.108;2023-09-19T05:05:20;190.67;;;151.90;;
5465;SDS011;2755;50.728;7.108;2023-09-19T05:07:47;190.57;;;148.03;;
5465;SDS011;2755;50.728;7.108;2023-09-19T05:10:13;188.53;;;143.17;;
5465;SDS011;2755;50.728;7.108;2023-09-19T05:12:39;192.03;;;150.87;;
5465;SDS011;2755;50.728;7.108;2023-09-19T05:15:06;187.17;;;142.37;;
5465;SDS011;2755;50.728;7.108;2023-09-19T05:17:32;178.77;;;129.77;;
5465;SDS011;2755;50.728;7.108;2023-09-19T05:20:00;185.77;;;140.53;;
5465;SDS011;2755;50.728;7.108;2023-09-19T05:22:30;180.10;;;131.87;;
5465;SDS011;2755;50.728;7.108;2023-09-19T05:24:57;179.73;;;129.83;;
5465;SDS011;2755;50.728;7.108;2023-09-19T05:27:24;184.37;;;137.23;;
5465;SDS011;2755;50.728;7.108;2023-09-19T05:29:50;182.80;;;136.47;;
5465;SDS011;2755;50.728;7.108;2023-09-19T05:32:18;179.57;;;128.20;;
5465;SDS011;2755;50.728;7.108;2023-09-19T05:34:44;180.13;;;132.20;;
5465;SDS011;2755;50.728;7.108;2023-09-19T05:37:10;182.97;;;136.77;;
5465;SDS011;2755;50.728;7.108;2023-09-19T05:39:36;181.07;;;132.40;;
5465;SDS011;2755;50.728;7.108;2023-09-19T05:42:02;182.30;;;135.20;;
5465;SDS011;2755;50.728;7.108;2023-09-19T05:44:28;178.97;;;131.67;;
5465;SDS011;2755;50.728;7.108;2023-09-19T05:46:54;181.93;;;134.93;;
5465;SDS011;2755;50.728;7.108;2023-09-19T05:49:21;177.80;;;129.53;;
5465;SDS011;2755;50.728;7.108;2023-09-19T05:51:47;179.80;;;132.40;;
5465;SDS011;2755;50.728;7.108;2023-09-19T05:54:13;177.87;;;127.00;;
5465;SDS011;2755;50.728;7.108;2023-09-19T05:56:38;176.37;;;127.77;;
5465;SDS011;2755;50.728;7.108;2023-09-19T05:59:04;191.97;;;133.90;;
5465;SDS011;2755;50.728;7.108;2023-09-19T06:01:30;183.87;;;129.27;;
5465;SDS011;2755;50.728;7.108;2023-09-19T06:03:57;186.60;;;125.70;;
5465;SDS011;2755;50.728;7.108;2023-09-19T06:06:25;180.37;;;123.83;;
5465;SDS011;2755;50.728;7.108;2023-09-19T06:08:51;181.80;;;135.50;;
5465;SDS011;2755;50.728;7.108;2023-09-19T06:11:17;178.10;;;127.60;;
5465;SDS011;2755;50.728;7.108;2023-09-19T06:13:45;177.67;;;128.37;;
5465;SDS011;2755;50.728;7.108;2023-09-19T06:16:12;182.97;;;140.20;;
5465;SDS011;2755;50.728;7.108;2023-09-19T06:18:38;185.33;;;141.07;;
5465;SDS011;2755;50.728;7.108;2023-09-19T06:21:04;192.47;;;155.97;;
5465;SDS011;2755;50.728;7.108;2023-09-19T06:23:33;185.43;;;142.57;;
5465;SDS011;2755;50.728;7.108;2023-09-19T06:26:00;184.40;;;143.10;;
5465;SDS011;2755;50.728;7.108;2023-09-19T06:28:25;187.67;;;148.73;;
5465;SDS011;2755;50.728;7.108;2023-09-19T06:30:53;187.57;;;148.03;;
5465;SDS011;2755;50.728;7.108;2023-09-19T06:33:19;186.30;;;147.77;;
5465;SDS011;2755;50.728;7.108;2023-09-19T06:35:46;185.57;;;145.30;;
5465;SDS011;2755;50.728;7.108;2023-09-19T06:38:13;192.67;;;154.37;;
5465;SDS011;2755;50.728;7.108;2023-09-19T06:40:40;187.13;;;149.17;;
5465;SDS011;2755;50.728;7.108;2023-09-19T06:43:07;191.27;;;156.03;;
5465;SDS011;2755;50.728;7.108;2023-09-19T06:45:35;189.73;;;154.00;;
5465;SDS011;2755;50.728;7.108;2023-09-19T06:48:01;191.23;;;151.07;;
5465;SDS011;2755;50.728;7.108;2023-09-19T06:50:28;186.27;;;139.70;;
5465;SDS011;2755;50.728;7.108;2023-09-19T06:52:56;182.83;;;133.17;;
5465;SDS011;2755;50.728;7.108;2023-09-19T06:55:24;184.87;;;135.37;;
5465;SDS011;2755;50.728;7.108;2023-09-19T06:57:53;181.83;;;127.80;;
5465;SDS011;2755;50.728;7.108;2023-09-19T07:00:19;179.17;;;125.47;;
5465;SDS011;2755;50.728;7.108;2023-09-19T07:02:59;174.67;;;119.30;;
5465;SDS011;2755;50.728;7.108;2023-09-19T07:05:26;174.87;;;119.30;;
5465;SDS011;2755;50.728;7.108;2023-09-19T07:07:56;168.63;;;111.93;;
5465;SDS011;2755;50.728;7.108;2023-09-19T07:10:26;162.27;;;102.50;;
5465;SDS011;2755;50.728;7.108;2023-09-19T07:15:25;162.33;;;102.73;;
5465;SDS011;2755;50.728;7.108;2023-09-19T07:17:51;163.43;;;105.17;;
5465;SDS011;2755;50.728;7.108;2023-09-19T07:20:18;164.03;;;107.50;;
5465;SDS011;2755;50.728;7.108;2023-09-19T07:22:44;166.47;;;110.30;;
5465;SDS011;2755;50.728;7.108;2023-09-19T07:25:11;165.93;;;106.97;;
5465;SDS011;2755;50.728;7.108;2023-09-19T07:27:39;165.83;;;105.27;;
5465;SDS011;2755;50.728;7.108;2023-09-19T07:30:05;170.73;;;113.83;;
5465;SDS011;2755;50.728;7.108;2023-09-19T07:32:33;176.57;;;124.30;;
5465;SDS011;2755;50.728;7.108;2023-09-19T07:35:01;172.70;;;119.80;;
5465;SDS011;2755;50.728;7.108;2023-09-19T07:37:28;175.93;;;123.67;;
5465;SDS011;2755;50.728;7.108;2023-09-19T07:39:56;170.90;;;115.67;;
5465;SDS011;2755;50.728;7.108;2023-09-19T07:42:22;175.00;;;119.73;;
5465;SDS011;2755;50.728;7.108;2023-09-19T07:44:48;171.20;;;121.60;;
5465;SDS011;2755;50.728;7.108;2023-09-19T07:47:15;171.50;;;120.17;;
5465;SDS011;2755;50.728;7.108;2023-09-19T07:49:41;175.07;;;125.67;;
5465;SDS011;2755;50.728;7.108;2023-09-19T07:52:08;173.27;;;123.07;;
5465;SDS011;2755;50.728;7.108;2023-09-19T07:54:35;184.23;;;139.73;;
5465;SDS011;2755;50.728;7.108;2023-09-19T07:57:01;184.47;;;141.07;;
5465;SDS011;2755;50.728;7.108;2023-09-19T07:59:27;179.70;;;134.17;;
5465;SDS011;2755;50.728;7.108;2023-09-19T08:01:53;170.90;;;121.40;;
5465;SDS011;2755;50.728;7.108;2023-09-19T08:04:19;171.97;;;122.73;;
5465;SDS011;2755;50.728;7.108;2023-09-19T08:06:44;169.43;;;117.57;;
5465;SDS011;2755;50.728;7.108;2023-09-19T08:09:10;171.77;;;117.97;;
5465;SDS011;2755;50.728;7.108;2023-09-19T08:11:37;180.47;;;128.03;;
5465;SDS011;2755;50.728;7.108;2023-09-19T08:14:04;183.83;;;136.77;;
5465;SDS011;2755;50.728;7.108;2023-09-19T08:16:32;182.77;;;136.77;;
5465;SDS011;2755;50.728;7.108;2023-09-19T08:18:58;177.60;;;128.93;;
5465;SDS011;2755;50.728;7.108;2023-09-19T08:21:24;177.33;;;127.70;;
5465;SDS011;2755;50.728;7.108;2023-09-19T08:23:52;175.27;;;124.27;;
5465;SDS011;2755;50.728;7.108;2023-09-19T08:26:19;173.87;;;120.67;;
5465;SDS011;2755;50.728;7.108;2023-09-19T08:28:44;175.73;;;123.23;;
5465;SDS011;2755;50.728;7.108;2023-09-19T08:31:10;174.97;;;121.87;;
5465;SDS011;2755;50.728;7.108;2023-09-19T08:33:36;175.57;;;123.80;;
5465;SDS011;2755;50.728;7.108;2023-09-19T08:36:02;173.87;;;124.37;;
5465;SDS011;2755;50.728;7.108;2023-09-19T08:38:30;179.43;;;132.97;;
5465;SDS011;2755;50.728;7.108;2023-09-19T08:40:58;180.30;;;132.10;;
5465;SDS011;2755;50.728;7.108;2023-09-19T08:43:25;184.50;;;140.37;;
5465;SDS011;2755;50.728;7.108;2023-09-19T08:46:14;190.27;;;149.60;;
5465;SDS011;2755;50.728;7.108;2023-09-19T08:48:50;189.77;;;148.90;;
5465;SDS011;2755;50.728;7.108;2023-09-19T08:51:33;192.43;;;152.77;;
5465;SDS011;2755;50.728;7.108;2023-09-19T08:54:12;194.80;;;155.53;;
5465;SDS011;2755;50.728;7.108;2023-09-19T08:56:53;189.43;;;143.17;;
5465;SDS011;2755;50.728;7.108;2023-09-19T08:59:22;189.47;;;140.27;;
5465;SDS011;2755;50.728;7.108;2023-09-19T09:01:54;183.97;;;131.70;;
5465;SDS011;2755;50.728;7.108;2023-09-19T09:04:21;178.57;;;122.60;;
5465;SDS011;2755;50.728;7.108;2023-09-19T09:06:48;177.60;;;123.20;;
5465;SDS011;2755;50.728;7.108;2023-09-19T09:09:18;180.47;;;123.87;;
5465;SDS011;2755;50.728;7.108;2023-09-19T09:11:44;178.57;;;124.27;;
5465;SDS011;2755;50.728;7.108;2023-09-19T09:14:11;179.47;;;123.73;;
5465;SDS011;2755;50.728;7.108;2023-09-19T09:16:37;183.83;;;136.00;;
5465;SDS011;2755;50.728;7.108;2023-09-19T09:19:03;179.83;;;130.07;;
5465;SDS011;2755;50.728;7.108;2023-09-19T09:21:30;181.33;;;129.23;;
5465;SDS011;2755;50.728;7.108;2023-09-19T09:24:21;179.33;;;129.50;;
5465;SDS011;2755;50.728;7.108;2023-09-19T09:26:53;173.97;;;119.80;;
5465;SDS011;2755;50.728;7.108;2023-09-19T09:30:05;173.27;;;122.20;;
5465;SDS011;2755;50.728;7.108;2023-09-19T09:32:22;164.87;;;107.90;;
5465;SDS011;2755;50.728;7.108;2023-09-19T09:34:53;169.90;;;116.10;;
5465;SDS011;2755;50.728;7.108;2023-09-19T09:37:25;172.77;;;121.27;;
5465;SDS011;2755;50.728;7.108;2023-09-19T09:39:54;167.97;;;112.00;;
5465;SDS011;2755;50.728;7.108;2023-09-19T09:42:41;169.90;;;115.00;;
5465;SDS011;2755;50.728;7.108;2023-09-19T09:45:14;171.97;;;119.77;;
5465;SDS011;2755;50.728;7.108;2023-09-19T09:47:59;177.63;;;129.67;;
5465;SDS011;2755;50.728;7.108;2023-09-19T09:50:35;183.07;;;136.50;;
5465;SDS011;2755;50.728;7.108;2023-09-19T09:53:34;185.80;;;142.83;;
5465;SDS011;2755;50.728;7.108;2023-09-19T09:56:08;183.27;;;139.87;;
5465;SDS011;2755;50.728;7.108;2023-09-19T10:01:13;192.13;;;153.77;;
5465;SDS011;2755;50.728;7.108;2023-09-19T10:03:41;195.90;;;159.83;;
5465;SDS011;2755;50.728;7.108;2023-09-19T10:06:13;196.37;;;157.70;;
5465;SDS011;2755;50.728;7.108;2023-09-19T10:08:58;189.50;;;145.87;;
5465;SDS011;2755;50.728;7.108;2023-09-19T10:11:45;184.57;;;140.90;;
5465;SDS011;2755;50.728;7.108;2023-09-19T10:14:27;190.23;;;147.53;;
5465;SDS011;2755;50.728;7.108;2023-09-19T10:16:56;194.43;;;155.73;;
5465;SDS011;2755;50.728;7.108;2023-09-19T10:19:40;191.53;;;149.47;;
5465;SDS011;2755;50.728;7.108;2023-09-19T10:22:17;192.50;;;152.77;;
5465;SDS011;2755;50.728;7.108;2023-09-19T10:24:47;182.57;;;136.37;;
5465;SDS011;2755;50.728;7.108;2023-09-19T10:27:18;186.20;;;143.30;;
5465;SDS011;2755;50.728;7.108;2023-09-19T10:29:45;184.13;;;138.67;;
5465;SDS011;2755;50.728;7.108;2023-09-19T10:32:19;183.97;;;139.50;;
5465;SDS011;2755;50.728;7.108;2023-09-19T10:34:49;191.03;;;153.67;;
5465;SDS011;2755;50.728;7.108;2023-09-19T10:37:18;189.77;;;148.97;;
5465;SDS011;2755;50.728;7.108;2023-09-19T10:39:47;182.60;;;135.77;;
5465;SDS011;2755;50.728;7.108;2023-09-19T10:42:18;182.70;;;135.20;;
5465;SDS011;2755;50.728;7.108;2023-09-19T10:44:45;180.27;;;129.73;;
5465;SDS011;2755;50.728;7.108;2023-09-19T10:47:18;184.93;;;138.73;;
5465;SDS011;2755;50.728;7.108;2023-09-19T10:49:45;179.93;;;129.87;;
5465;SDS011;2755;50.728;7.108;2023-09-19T10:52:12;179.93;;;131.47;;
5465;SDS011;2755;50.728;7.108;2023-09-19T10:54:45;179.37;;;129.93;;
5465;SDS011;2755;50.728;7.108;2023-09-19T10:57:24;186.27;;;140.27;;
5465;SDS011;2755;50.728;7.108;2023-09-19T11:05:36;188.23;;;142.20;;
5465;SDS011;2755;50.728;7.108;2023-09-19T11:08:09;188.30;;;143.83;;
5465;SDS011;2755;50.728;7.108;2023-09-19T11:10:46;187.23;;;143.00;;
5465;SDS011;2755;50.728;7.108;2023-09-19T11:13:23;185.07;;;138.20;;
5465;SDS011;2755;50.728;7.108;2023-09-19T11:26:49;175.57;;;125.43;;
5465;SDS011;2755;50.728;7.108;2023-09-19T11:29:32;178.47;;;130.20;;
5465;SDS011;2755;50.728;7.108;2023-09-19T11:31:58;175.70;;;125.77;;
5465;SDS011;2755;50.728;7.108;2023-09-19T11:37:02;178.10;;;130.20;;
5465;SDS011;2755;50.728;7.108;2023-09-19T11:39:32;182.07;;;134.00;;
5465;SDS011;2755;50.728;7.108;2023-09-19T11:41:58;184.17;;;139.53;;
5465;SDS011;2755;50.728;7.108;2023-09-19T11:49:18;204.17;;;171.53;;
5465;SDS011;2755;50.728;7.108;2023-09-19T11:51:49;205.27;;;173.73;;
5465;SDS011;2755;50.728;7.108;2023-09-19T11:54:19;206.17;;;173.77;;
5465;SDS011;2755;50.728;7.108;2023-09-19T11:56:48;203.53;;;171.13;;
5465;SDS011;2755;50.728;7.108;2023-09-19T11:59:21;201.53;;;162.50;;
5465;SDS011;2755;50.728;7.108;2023-09-19T12:02:01;202.70;;;166.80;;
5465;SDS011;2755;50.728;7.108;2023-09-19T12:07:02;197.37;;;157.87;;
5465;SDS011;2755;50.728;7.108;2023-09-19T12:09:44;192.37;;;147.40;;
5465;SDS011;2755;50.728;7.108;2023-09-19T12:12:28;193.90;;;147.10;;
5465;SDS011;2755;50.728;7.108;2023-09-19T12:14:55;195.97;;;150.67;;
5465;SDS011;2755;50.728;7.108;2023-09-19T12:17:23;195.97;;;151.00;;
5465;SDS011;2755;50.728;7.108;2023-09-19T12:20:02;192.70;;;147.40;;
5465;SDS011;2755;50.728;7.108;2023-09-19T12:22:41;185.87;;;139.30;;
5465;SDS011;2755;50.728;7.108;2023-09-19T12:25:08;185.53;;;140.93;;
5465;SDS011;2755;50.728;7.108;2023-09-19T12:27:46;182.10;;;138.13;;
5465;SDS011;2755;50.728;7.108;2023-09-19T12:30:14;186.33;;;142.37;;
5465;SDS011;2755;50.728;7.108;2023-09-19T12:32:43;183.17;;;135.13;;
5465;SDS011;2755;50.728;7.108;2023-09-19T12:35:09;179.90;;;129.60;;
5465;SDS011;2755;50.728;7.108;2023-09-19T12:37:44;190.10;;;147.43;;
5465;SDS011;2755;50.728;7.108;2023-09-19T12:40:13;183.83;;;135.43;;
5465;SDS011;2755;50.728;7.108;2023-09-19T12:42:43;192.03;;;147.63;;
5465;SDS011;2755;50.728;7.108;2023-09-19T12:45:10;195.43;;;153.40;;
5465;SDS011;2755;50.728;7.108;2023-09-19T12:47:38;197.40;;;160.57;;
5465;SDS011;2755;50.728;7.108;2023-09-19T12:52:56;200.37;;;169.77;;
5465;SDS011;2755;50.728;7.108;2023-09-19T12:55:25;195.10;;;160.27;;
5465;SDS011;2755;50.728;7.108;2023-09-19T12:57:59;192.30;;;158.00;;
5465;SDS011;2755;50.728;7.108;2023-09-19T13:00:32;187.37;;;147.90;;
5465;SDS011;2755;50.728;7.108;2023-09-19T13:03:18;188.27;;;150.47;;
5465;SDS011;2755;50.728;7.108;2023-09-19T13:05:58;188.17;;;146.50;;
5465;SDS011;2755;50.728;7.108;2023-09-19T13:13:27;193.37;;;158.67;;
5465;SDS011;2755;50.728;7.108;2023-09-19T13:15:53;192.67;;;157.37;;
5465;SDS011;2755;50.728;7.108;2023-09-19T13:18:22;195.63;;;162.77;;
5465;SDS011;2755;50.728;7.108;2023-09-19T13:23:49;193.97;;;158.67;;
5465;SDS011;2755;50.728;7.108;2023-09-19T13:26:16;194.43;;;158.93;;
5465;SDS011;2755;50.728;7.108;2023-09-19T13:28:41;200.83;;;166.23;;
5465;SDS011;2755;50.728;7.108;2023-09-19T13:31:10;199.43;;;164.27;;
5465;SDS011;2755;50.728;7.108;2023-09-19T13:33:42;194.77;;;154.50;;
5465;SDS011;2755;50.728;7.108;2023-09-19T13:36:10;193.30;;;150.23;;
5465;SDS011;2755;50.728;7.108;2023-09-19T13:38:36;188.97;;;145.13;;
5465;SDS011;2755;50.728;7.108;2023-09-19T13:41:02;189.83;;;145.23;;
5465;SDS011;2755;50.728;7.108;2023-09-19T13:43:28;192.30;;;146.80;;
5465;SDS011;2755;50.728;7.108;2023-09-19T13:45:54;188.37;;;142.00;;
5465;SDS011;2755;50.728;7.108;2023-09-19T13:48:20;191.07;;;147.37;;
5465;SDS011;2755;50.728;7.108;2023-09-19T13:50:48;189.07;;;141.53;;
5465;SDS011;2755;50.728;7.108;2023-09-19T13:53:14;192.67;;;149.67;;
5465;SDS011;2755;50.728;7.108;2023-09-19T13:55:41;190.47;;;150.00;;
5465;SDS011;2755;50.728;7.108;2023-09-19T13:58:07;191.87;;;149.33;;
5465;SDS011;2755;50.728;7.108;2023-09-19T14:00:35;193.53;;;151.03;;
5465;SDS011;2755;50.728;7.108;2023-09-19T14:03:01;199.17;;;161.10;;
5465;SDS011;2755;50.728;7.108;2023-09-19T14:05:29;190.47;;;146.80;;
5465;SDS011;2755;50.728;7.108;2023-09-19T14:07:55;191.27;;;148.87;;
5465;SDS011;2755;50.728;7.108;2023-09-19T14:10:22;191.10;;;149.33;;
5465;SDS011;2755;50.728;7.108;2023-09-19T14:12:51;186.47;;;143.20;;
5465;SDS011;2755;50.728;7.108;2023-09-19T14:15:16;189.63;;;147.47;;
5465;SDS011;2755;50.728;7.108;2023-09-19T14:17:42;185.60;;;141.57;;
5465;SDS011;2755;50.728;7.108;2023-09-19T14:20:10;186.37;;;140.97;;
5465;SDS011;2755;50.728;7.108;2023-09-19T14:22:36;189.60;;;147.30;;
5465;SDS011;2755;50.728;7.108;2023-09-19T14:25:02;188.27;;;146.73;;
5465;SDS011;2755;50.728;7.108;2023-09-19T14:27:29;189.40;;;148.00;;
5465;SDS011;2755;50.728;7.108;2023-09-19T14:29:55;184.67;;;141.77;;
5465;SDS011;2755;50.728;7.108;2023-09-19T14:32:22;185.23;;;142.10;;
5465;SDS011;2755;50.728;7.108;2023-09-19T14:34:48;186.33;;;147.70;;
5465;SDS011;2755;50.728;7.108;2023-09-19T14:37:14;186.37;;;145.30;;
5465;SDS011;2755;50.728;7.108;2023-09-19T14:39:41;186.40;;;144.43;;
5465;SDS011;2755;50.728;7.108;2023-09-19T14:42:09;189.07;;;145.50;;
5465;SDS011;2755;50.728;7.108;2023-09-19T14:44:35;186.97;;;145.00;;
5465;SDS011;2755;50.728;7.108;2023-09-19T14:47:05;187.87;;;145.10;;
5465;SDS011;2755;50.728;7.108;2023-09-19T14:49:35;189.60;;;148.97;;
5465;SDS011;2755;50.728;7.108;2023-09-19T14:52:06;189.33;;;149.27;;
5465;SDS011;2755;50.728;7.108;2023-09-19T14:54:32;188.10;;;147.77;;
5465;SDS011;2755;50.728;7.108;2023-09-19T14:56:59;188.00;;;147.30;;
5465;SDS011;2755;50.728;7.108;2023-09-19T14:59:33;189.87;;;152.40;;
5465;SDS011;2755;50.728;7.108;2023-09-19T15:02:02;192.13;;;156.60;;
5465;SDS011;2755;50.728;7.108;2023-09-19T15:04:31;193.37;;;157.87;;
5465;SDS011;2755;50.728;7.108;2023-09-19T15:06:58;191.63;;;154.00;;
5465;SDS011;2755;50.728;7.108;2023-09-19T15:09:24;190.73;;;153.00;;
5465;SDS011;2755;50.728;7.108;2023-09-19T15:11:51;187.43;;;150.70;;
5465;SDS011;2755;50.728;7.108;2023-09-19T15:14:17;187.37;;;147.57;;
5465;SDS011;2755;50.728;7.108;2023-09-19T15:16:43;190.30;;;151.67;;
5465;SDS011;2755;50.728;7.108;2023-09-19T15:19:09;187.30;;;146.87;;
5465;SDS011;2755;50.728;7.108;2023-09-19T15:21:35;188.03;;;149.40;;
5465;SDS011;2755;50.728;7.108;2023-09-19T15:24:02;191.10;;;153.70;;
5465;SDS011;2755;50.728;7.108;2023-09-19T15:26:28;186.37;;;146.97;;
5465;SDS011;2755;50.728;7.108;2023-09-19T15:28:55;188.47;;;148.37;;